sensor_id;sensor_type;location;lat;lon;timestamp;temperature;humidity
18229;DHT22;9239;50.932;3.142;2023-05-27T00:00:27;12.40;99.90
18229;DHT22;9239;50.932;3.142;2023-05-27T00:02:54;12.30;99.90
18229;DHT22;9239;50.932;3.142;2023-05-27T00:05:21;12.40;99.90
18229;DHT22;9239;50.932;3.142;2023-05-27T00:07:47;12.30;99.90
18229;DHT22;9239;50.932;3.142;2023-05-27T00:10:14;12.30;99.90
18229;DHT22;9239;50.932;3.142;2023-05-27T00:12:41;12.30;99.90
18229;DHT22;9239;50.932;3.142;2023-05-27T00:15:10;12.20;99.90
18229;DHT22;9239;50.932;3.142;2023-05-27T00:17:38;12.30;99.90
18229;DHT22;9239;50.932;3.142;2023-05-27T00:20:06;12.30;99.90
18229;DHT22;9239;50.932;3.142;2023-05-27T00:22:34;12.20;99.90
18229;DHT22;9239;50.932;3.142;2023-05-27T00:25:02;12.20;99.90
18229;DHT22;9239;50.932;3.142;2023-05-27T00:27:29;12.20;99.90
18229;DHT22;9239;50.932;3.142;2023-05-27T00:29:56;12.20;99.90
18229;DHT22;9239;50.932;3.142;2023-05-27T00:32:25;12.10;99.90
18229;DHT22;9239;50.932;3.142;2023-05-27T00:34:52;12.10;99.90
18229;DHT22;9239;50.932;3.142;2023-05-27T00:37:18;12.10;99.90
18229;DHT22;9239;50.932;3.142;2023-05-27T00:39:45;12.10;99.90
18229;DHT22;9239;50.932;3.142;2023-05-27T00:42:13;12.10;99.90
18229;DHT22;9239;50.932;3.142;2023-05-27T00:44:40;12.10;99.90
18229;DHT22;9239;50.932;3.142;2023-05-27T00:47:07;12.00;99.90
18229;DHT22;9239;50.932;3.142;2023-05-27T00:49:35;12.00;99.90
18229;DHT22;9239;50.932;3.142;2023-05-27T00:52:02;11.90;99.90
18229;DHT22;9239;50.932;3.142;2023-05-27T00:54:29;12.00;99.90
18229;DHT22;9239;50.932;3.142;2023-05-27T00:56:57;12.00;99.90
18229;DHT22;9239;50.932;3.142;2023-05-27T00:59:24;11.90;99.90
18229;DHT22;9239;50.932;3.142;2023-05-27T01:01:52;11.90;99.90
18229;DHT22;9239;50.932;3.142;2023-05-27T01:04:19;11.80;99.90
18229;DHT22;9239;50.932;3.142;2023-05-27T01:07:00;11.80;99.90
18229;DHT22;9239;50.932;3.142;2023-05-27T01:09:34;11.80;99.90
18229;DHT22;9239;50.932;3.142;2023-05-27T01:12:07;11.80;99.90
18229;DHT22;9239;50.932;3.142;2023-05-27T01:14:36;11.80;99.90
18229;DHT22;9239;50.932;3.142;2023-05-27T01:17:05;11.80;99.90
18229;DHT22;9239;50.932;3.142;2023-05-27T01:19:34;11.80;99.90
18229;DHT22;9239;50.932;3.142;2023-05-27T01:22:04;11.70;99.90
18229;DHT22;9239;50.932;3.142;2023-05-27T01:24:34;11.70;99.90
18229;DHT22;9239;50.932;3.142;2023-05-27T01:27:03;11.70;99.90
18229;DHT22;9239;50.932;3.142;2023-05-27T01:29:30;11.60;99.90
18229;DHT22;9239;50.932;3.142;2023-05-27T01:32:04;11.60;99.90
18229;DHT22;9239;50.932;3.142;2023-05-27T01:34:36;11.60;99.90
18229;DHT22;9239;50.932;3.142;2023-05-27T01:37:07;11.60;99.90
18229;DHT22;9239;50.932;3.142;2023-05-27T01:39:37;11.60;99.90
18229;DHT22;9239;50.932;3.142;2023-05-27T01:42:05;11.50;99.90
18229;DHT22;9239;50.932;3.142;2023-05-27T01:44:33;11.50;99.90
18229;DHT22;9239;50.932;3.142;2023-05-27T01:47:00;11.50;99.90
18229;DHT22;9239;50.932;3.142;2023-05-27T01:49:27;11.50;99.90
18229;DHT22;9239;50.932;3.142;2023-05-27T01:51:54;11.50;99.90
18229;DHT22;9239;50.932;3.142;2023-05-27T01:54:21;11.50;99.90
18229;DHT22;9239;50.932;3.142;2023-05-27T01:56:50;11.50;99.90
18229;DHT22;9239;50.932;3.142;2023-05-27T01:59:17;11.40;99.90
18229;DHT22;9239;50.932;3.142;2023-05-27T02:01:43;11.40;99.90
18229;DHT22;9239;50.932;3.142;2023-05-27T02:04:11;11.40;99.90
18229;DHT22;9239;50.932;3.142;2023-05-27T02:06:37;11.40;99.90
18229;DHT22;9239;50.932;3.142;2023-05-27T02:09:06;11.30;99.90
18229;DHT22;9239;50.932;3.142;2023-05-27T02:11:32;11.30;99.90
18229;DHT22;9239;50.932;3.142;2023-05-27T02:14:01;11.30;99.90
18229;DHT22;9239;50.932;3.142;2023-05-27T02:16:28;11.20;99.90
18229;DHT22;9239;50.932;3.142;2023-05-27T02:18:56;11.20;99.90
18229;DHT22;9239;50.932;3.142;2023-05-27T02:21:23;11.20;99.90
18229;DHT22;9239;50.932;3.142;2023-05-27T02:23:50;11.20;99.90
18229;DHT22;9239;50.932;3.142;2023-05-27T02:26:17;11.10;99.90
18229;DHT22;9239;50.932;3.142;2023-05-27T02:28:44;11.10;99.90
18229;DHT22;9239;50.932;3.142;2023-05-27T02:31:12;11.10;99.90
18229;DHT22;9239;50.932;3.142;2023-05-27T02:33:39;11.10;99.90
18229;DHT22;9239;50.932;3.142;2023-05-27T02:36:06;11.00;99.90
18229;DHT22;9239;50.932;3.142;2023-05-27T02:38:33;11.00;99.90
18229;DHT22;9239;50.932;3.142;2023-05-27T02:41:00;11.00;99.90
18229;DHT22;9239;50.932;3.142;2023-05-27T02:43:27;10.90;99.90
18229;DHT22;9239;50.932;3.142;2023-05-27T02:45:54;10.90;99.90
18229;DHT22;9239;50.932;3.142;2023-05-27T02:48:23;10.90;99.90
18229;DHT22;9239;50.932;3.142;2023-05-27T02:50:49;10.90;99.90
18229;DHT22;9239;50.932;3.142;2023-05-27T02:53:16;10.90;99.90
18229;DHT22;9239;50.932;3.142;2023-05-27T02:55:43;10.90;99.90
18229;DHT22;9239;50.932;3.142;2023-05-27T02:58:10;10.80;99.90
18229;DHT22;9239;50.932;3.142;2023-05-27T03:00:37;10.70;99.90
18229;DHT22;9239;50.932;3.142;2023-05-27T03:03:04;10.70;99.90
18229;DHT22;9239;50.932;3.142;2023-05-27T03:05:34;10.70;99.90
18229;DHT22;9239;50.932;3.142;2023-05-27T03:08:01;10.70;99.90
18229;DHT22;9239;50.932;3.142;2023-05-27T03:10:28;10.60;99.90
18229;DHT22;9239;50.932;3.142;2023-05-27T03:12:56;10.60;99.90
18229;DHT22;9239;50.932;3.142;2023-05-27T03:15:23;10.60;99.90
18229;DHT22;9239;50.932;3.142;2023-05-27T03:17:50;10.60;99.90
18229;DHT22;9239;50.932;3.142;2023-05-27T03:20:17;10.50;99.90
18229;DHT22;9239;50.932;3.142;2023-05-27T03:22:45;10.50;99.90
18229;DHT22;9239;50.932;3.142;2023-05-27T03:25:13;10.50;99.90
18229;DHT22;9239;50.932;3.142;2023-05-27T03:27:40;10.40;99.90
18229;DHT22;9239;50.932;3.142;2023-05-27T03:30:07;10.50;99.90
18229;DHT22;9239;50.932;3.142;2023-05-27T03:32:35;10.50;99.90
18229;DHT22;9239;50.932;3.142;2023-05-27T03:35:02;10.40;99.90
18229;DHT22;9239;50.932;3.142;2023-05-27T03:37:28;10.40;99.90
18229;DHT22;9239;50.932;3.142;2023-05-27T03:39:57;10.30;99.90
18229;DHT22;9239;50.932;3.142;2023-05-27T03:42:24;10.30;99.90
18229;DHT22;9239;50.932;3.142;2023-05-27T03:44:51;10.30;99.90
18229;DHT22;9239;50.932;3.142;2023-05-27T03:47:18;10.30;99.90
18229;DHT22;9239;50.932;3.142;2023-05-27T03:49:46;10.20;99.90
18229;DHT22;9239;50.932;3.142;2023-05-27T03:52:14;10.20;99.90
18229;DHT22;9239;50.932;3.142;2023-05-27T03:54:41;10.30;99.90
18229;DHT22;9239;50.932;3.142;2023-05-27T03:57:09;10.30;99.90
18229;DHT22;9239;50.932;3.142;2023-05-27T03:59:36;10.20;99.90
18229;DHT22;9239;50.932;3.142;2023-05-27T04:02:03;10.20;99.90
18229;DHT22;9239;50.932;3.142;2023-05-27T04:04:30;10.30;99.90
18229;DHT22;9239;50.932;3.142;2023-05-27T04:06:57;10.20;99.90
18229;DHT22;9239;50.932;3.142;2023-05-27T04:09:23;10.20;99.90
18229;DHT22;9239;50.932;3.142;2023-05-27T04:11:50;10.20;99.90
18229;DHT22;9239;50.932;3.142;2023-05-27T04:14:19;10.20;99.90
18229;DHT22;9239;50.932;3.142;2023-05-27T04:16:46;10.20;99.90
18229;DHT22;9239;50.932;3.142;2023-05-27T04:19:13;10.20;99.90
18229;DHT22;9239;50.932;3.142;2023-05-27T04:21:40;10.20;99.90
18229;DHT22;9239;50.932;3.142;2023-05-27T04:24:07;10.20;99.90
18229;DHT22;9239;50.932;3.142;2023-05-27T04:26:34;10.20;99.90
18229;DHT22;9239;50.932;3.142;2023-05-27T04:29:01;10.10;99.90
18229;DHT22;9239;50.932;3.142;2023-05-27T04:31:31;10.10;99.90
18229;DHT22;9239;50.932;3.142;2023-05-27T04:33:58;10.10;99.90
18229;DHT22;9239;50.932;3.142;2023-05-27T04:36:25;10.10;99.90
18229;DHT22;9239;50.932;3.142;2023-05-27T04:38:58;10.20;99.90
18229;DHT22;9239;50.932;3.142;2023-05-27T04:41:27;10.20;99.90
18229;DHT22;9239;50.932;3.142;2023-05-27T04:43:54;10.20;99.90
18229;DHT22;9239;50.932;3.142;2023-05-27T04:46:22;10.20;99.90
18229;DHT22;9239;50.932;3.142;2023-05-27T04:48:52;10.20;99.90
18229;DHT22;9239;50.932;3.142;2023-05-27T04:51:19;10.30;99.90
18229;DHT22;9239;50.932;3.142;2023-05-27T04:53:46;10.30;99.90
18229;DHT22;9239;50.932;3.142;2023-05-27T04:56:13;10.30;99.90
18229;DHT22;9239;50.932;3.142;2023-05-27T04:58:41;10.30;99.90
18229;DHT22;9239;50.932;3.142;2023-05-27T05:01:12;10.30;99.90
18229;DHT22;9239;50.932;3.142;2023-05-27T05:03:43;10.40;99.90
18229;DHT22;9239;50.932;3.142;2023-05-27T05:06:19;10.40;99.90
18229;DHT22;9239;50.932;3.142;2023-05-27T05:08:46;10.60;99.90
18229;DHT22;9239;50.932;3.142;2023-05-27T05:11:14;10.60;99.90
18229;DHT22;9239;50.932;3.142;2023-05-27T05:13:41;10.90;99.90
18229;DHT22;9239;50.932;3.142;2023-05-27T05:16:07;11.10;99.90
18229;DHT22;9239;50.932;3.142;2023-05-27T05:18:34;11.20;99.90
18229;DHT22;9239;50.932;3.142;2023-05-27T05:21:01;11.30;99.90
18229;DHT22;9239;50.932;3.142;2023-05-27T05:23:29;11.20;99.90
18229;DHT22;9239;50.932;3.142;2023-05-27T05:25:56;11.10;99.90
18229;DHT22;9239;50.932;3.142;2023-05-27T05:28:31;11.00;99.90
18229;DHT22;9239;50.932;3.142;2023-05-27T05:30:58;11.00;99.90
18229;DHT22;9239;50.932;3.142;2023-05-27T05:33:25;10.90;99.90
18229;DHT22;9239;50.932;3.142;2023-05-27T05:35:52;10.90;99.90
18229;DHT22;9239;50.932;3.142;2023-05-27T05:38:19;11.00;99.90
18229;DHT22;9239;50.932;3.142;2023-05-27T05:40:47;11.00;99.90
18229;DHT22;9239;50.932;3.142;2023-05-27T05:43:18;11.10;99.90
18229;DHT22;9239;50.932;3.142;2023-05-27T05:45:45;11.10;99.90
18229;DHT22;9239;50.932;3.142;2023-05-27T05:48:11;11.10;99.90
18229;DHT22;9239;50.932;3.142;2023-05-27T05:50:38;11.30;99.90
18229;DHT22;9239;50.932;3.142;2023-05-27T05:53:05;11.50;99.90
18229;DHT22;9239;50.932;3.142;2023-05-27T05:55:32;11.60;99.90
18229;DHT22;9239;50.932;3.142;2023-05-27T05:58:00;11.80;99.90
18229;DHT22;9239;50.932;3.142;2023-05-27T06:00:28;12.00;99.90
18229;DHT22;9239;50.932;3.142;2023-05-27T06:02:55;12.10;99.90
18229;DHT22;9239;50.932;3.142;2023-05-27T06:05:21;12.20;99.90
18229;DHT22;9239;50.932;3.142;2023-05-27T06:07:51;12.20;99.90
18229;DHT22;9239;50.932;3.142;2023-05-27T06:10:18;12.30;99.90
18229;DHT22;9239;50.932;3.142;2023-05-27T06:12:46;12.40;99.90
18229;DHT22;9239;50.932;3.142;2023-05-27T06:15:14;12.40;99.90
18229;DHT22;9239;50.932;3.142;2023-05-27T06:17:41;12.40;99.90
18229;DHT22;9239;50.932;3.142;2023-05-27T06:20:08;12.40;99.90
18229;DHT22;9239;50.932;3.142;2023-05-27T06:22:35;12.50;99.90
18229;DHT22;9239;50.932;3.142;2023-05-27T06:25:03;12.70;99.90
18229;DHT22;9239;50.932;3.142;2023-05-27T06:27:30;12.70;99.90
18229;DHT22;9239;50.932;3.142;2023-05-27T06:29:57;12.70;99.90
18229;DHT22;9239;50.932;3.142;2023-05-27T06:32:25;12.80;99.90
18229;DHT22;9239;50.932;3.142;2023-05-27T06:34:52;12.80;99.90
18229;DHT22;9239;50.932;3.142;2023-05-27T06:37:19;12.90;99.90
18229;DHT22;9239;50.932;3.142;2023-05-27T06:39:46;12.90;99.90
18229;DHT22;9239;50.932;3.142;2023-05-27T06:42:13;13.10;99.90
18229;DHT22;9239;50.932;3.142;2023-05-27T06:44:40;13.20;99.90
18229;DHT22;9239;50.932;3.142;2023-05-27T06:47:07;13.10;99.90
18229;DHT22;9239;50.932;3.142;2023-05-27T06:49:35;13.00;99.90
18229;DHT22;9239;50.932;3.142;2023-05-27T06:52:03;13.10;99.90
18229;DHT22;9239;50.932;3.142;2023-05-27T06:54:30;13.30;99.90
18229;DHT22;9239;50.932;3.142;2023-05-27T06:56:57;13.50;99.90
18229;DHT22;9239;50.932;3.142;2023-05-27T06:59:24;13.60;99.90
18229;DHT22;9239;50.932;3.142;2023-05-27T07:01:51;13.60;99.90
18229;DHT22;9239;50.932;3.142;2023-05-27T07:04:18;13.60;99.90
18229;DHT22;9239;50.932;3.142;2023-05-27T07:06:46;13.50;99.90
18229;DHT22;9239;50.932;3.142;2023-05-27T07:09:13;13.70;99.90
18229;DHT22;9239;50.932;3.142;2023-05-27T07:11:40;14.00;99.90
18229;DHT22;9239;50.932;3.142;2023-05-27T07:14:07;14.20;99.90
18229;DHT22;9239;50.932;3.142;2023-05-27T07:16:36;14.30;99.90
18229;DHT22;9239;50.932;3.142;2023-05-27T07:19:03;14.30;99.90
18229;DHT22;9239;50.932;3.142;2023-05-27T07:21:30;14.00;99.90
18229;DHT22;9239;50.932;3.142;2023-05-27T07:24:01;13.90;99.90
18229;DHT22;9239;50.932;3.142;2023-05-27T07:26:29;13.80;99.90
18229;DHT22;9239;50.932;3.142;2023-05-27T07:28:57;13.90;99.90
18229;DHT22;9239;50.932;3.142;2023-05-27T07:31:25;13.90;99.90
18229;DHT22;9239;50.932;3.142;2023-05-27T07:33:52;13.90;99.90
18229;DHT22;9239;50.932;3.142;2023-05-27T07:36:19;14.00;99.90
18229;DHT22;9239;50.932;3.142;2023-05-27T07:38:47;14.00;99.90
18229;DHT22;9239;50.932;3.142;2023-05-27T07:41:15;14.10;99.90
18229;DHT22;9239;50.932;3.142;2023-05-27T07:43:42;14.20;99.90
18229;DHT22;9239;50.932;3.142;2023-05-27T07:46:09;14.20;99.90
18229;DHT22;9239;50.932;3.142;2023-05-27T07:48:36;14.30;99.90
18229;DHT22;9239;50.932;3.142;2023-05-27T07:51:03;14.20;99.90
18229;DHT22;9239;50.932;3.142;2023-05-27T07:53:30;14.30;99.90
18229;DHT22;9239;50.932;3.142;2023-05-27T07:55:57;14.30;99.90
18229;DHT22;9239;50.932;3.142;2023-05-27T07:58:25;14.40;99.90
18229;DHT22;9239;50.932;3.142;2023-05-27T08:00:52;14.40;99.90
18229;DHT22;9239;50.932;3.142;2023-05-27T08:03:19;14.40;99.90
18229;DHT22;9239;50.932;3.142;2023-05-27T08:05:46;14.40;99.90
18229;DHT22;9239;50.932;3.142;2023-05-27T08:08:13;14.50;99.90
18229;DHT22;9239;50.932;3.142;2023-05-27T08:10:40;14.70;99.90
18229;DHT22;9239;50.932;3.142;2023-05-27T08:13:09;14.90;99.90
18229;DHT22;9239;50.932;3.142;2023-05-27T08:15:38;15.00;99.90
18229;DHT22;9239;50.932;3.142;2023-05-27T08:18:05;15.10;99.90
18229;DHT22;9239;50.932;3.142;2023-05-27T08:20:32;15.20;99.90
18229;DHT22;9239;50.932;3.142;2023-05-27T08:22:58;15.30;99.90
18229;DHT22;9239;50.932;3.142;2023-05-27T08:25:25;15.50;99.90
18229;DHT22;9239;50.932;3.142;2023-05-27T08:27:53;15.50;99.90
18229;DHT22;9239;50.932;3.142;2023-05-27T08:30:23;15.50;99.90
18229;DHT22;9239;50.932;3.142;2023-05-27T08:32:51;15.60;99.90
18229;DHT22;9239;50.932;3.142;2023-05-27T08:35:18;15.70;99.90
18229;DHT22;9239;50.932;3.142;2023-05-27T08:37:45;15.80;99.90
18229;DHT22;9239;50.932;3.142;2023-05-27T08:40:14;15.80;99.90
18229;DHT22;9239;50.932;3.142;2023-05-27T08:42:42;15.90;99.90
18229;DHT22;9239;50.932;3.142;2023-05-27T08:45:10;16.00;99.90
18229;DHT22;9239;50.932;3.142;2023-05-27T08:47:38;16.20;99.90
18229;DHT22;9239;50.932;3.142;2023-05-27T08:50:08;16.30;99.90
18229;DHT22;9239;50.932;3.142;2023-05-27T08:52:38;16.40;99.90
18229;DHT22;9239;50.932;3.142;2023-05-27T08:55:07;16.40;99.90
18229;DHT22;9239;50.932;3.142;2023-05-27T08:57:35;16.40;99.90
18229;DHT22;9239;50.932;3.142;2023-05-27T09:00:02;16.40;99.90
18229;DHT22;9239;50.932;3.142;2023-05-27T09:02:38;16.40;99.90
18229;DHT22;9239;50.932;3.142;2023-05-27T09:05:08;16.50;99.90
18229;DHT22;9239;50.932;3.142;2023-05-27T09:07:35;16.60;99.90
18229;DHT22;9239;50.932;3.142;2023-05-27T09:10:04;16.90;99.90
18229;DHT22;9239;50.932;3.142;2023-05-27T09:12:33;17.10;99.90
18229;DHT22;9239;50.932;3.142;2023-05-27T09:15:00;17.10;99.90
18229;DHT22;9239;50.932;3.142;2023-05-27T09:17:27;17.10;99.90
18229;DHT22;9239;50.932;3.142;2023-05-27T09:19:54;17.10;99.90
18229;DHT22;9239;50.932;3.142;2023-05-27T09:22:24;17.30;99.90
18229;DHT22;9239;50.932;3.142;2023-05-27T09:24:52;17.30;99.90
18229;DHT22;9239;50.932;3.142;2023-05-27T09:27:24;17.20;99.90
18229;DHT22;9239;50.932;3.142;2023-05-27T09:29:52;17.20;99.90
18229;DHT22;9239;50.932;3.142;2023-05-27T09:32:26;17.20;99.90
18229;DHT22;9239;50.932;3.142;2023-05-27T09:34:53;17.20;99.90
18229;DHT22;9239;50.932;3.142;2023-05-27T09:37:25;17.30;99.90
18229;DHT22;9239;50.932;3.142;2023-05-27T09:39:57;17.40;99.90
18229;DHT22;9239;50.932;3.142;2023-05-27T09:42:24;17.30;99.90
18229;DHT22;9239;50.932;3.142;2023-05-27T09:44:54;17.40;99.90
18229;DHT22;9239;50.932;3.142;2023-05-27T09:47:21;17.50;99.90
18229;DHT22;9239;50.932;3.142;2023-05-27T09:49:49;17.70;99.90
18229;DHT22;9239;50.932;3.142;2023-05-27T09:52:18;17.80;99.90
18229;DHT22;9239;50.932;3.142;2023-05-27T09:54:48;18.00;99.90
18229;DHT22;9239;50.932;3.142;2023-05-27T09:57:16;18.20;99.90
18229;DHT22;9239;50.932;3.142;2023-05-27T09:59:46;18.20;99.90
18229;DHT22;9239;50.932;3.142;2023-05-27T10:02:17;18.10;99.90
18229;DHT22;9239;50.932;3.142;2023-05-27T10:04:44;18.00;99.90
18229;DHT22;9239;50.932;3.142;2023-05-27T10:07:15;18.20;99.90
18229;DHT22;9239;50.932;3.142;2023-05-27T10:09:45;18.20;99.90
18229;DHT22;9239;50.932;3.142;2023-05-27T10:12:14;18.20;99.90
18229;DHT22;9239;50.932;3.142;2023-05-27T10:14:42;18.40;99.90
18229;DHT22;9239;50.932;3.142;2023-05-27T10:17:11;18.40;99.90
18229;DHT22;9239;50.932;3.142;2023-05-27T10:19:52;18.40;99.90
18229;DHT22;9239;50.932;3.142;2023-05-27T10:22:20;18.50;99.90
18229;DHT22;9239;50.932;3.142;2023-05-27T10:24:47;18.60;99.90
18229;DHT22;9239;50.932;3.142;2023-05-27T10:27:17;18.60;99.90
18229;DHT22;9239;50.932;3.142;2023-05-27T10:29:43;18.70;99.90
18229;DHT22;9239;50.932;3.142;2023-05-27T10:32:11;18.60;99.90
18229;DHT22;9239;50.932;3.142;2023-05-27T10:34:49;18.70;99.90
18229;DHT22;9239;50.932;3.142;2023-05-27T10:37:32;18.60;99.90
18229;DHT22;9239;50.932;3.142;2023-05-27T10:40:01;18.60;99.90
18229;DHT22;9239;50.932;3.142;2023-05-27T10:42:33;18.70;99.90
18229;DHT22;9239;50.932;3.142;2023-05-27T10:45:08;18.70;99.90
18229;DHT22;9239;50.932;3.142;2023-05-27T10:47:36;18.90;99.90
18229;DHT22;9239;50.932;3.142;2023-05-27T10:50:11;18.90;99.90
18229;DHT22;9239;50.932;3.142;2023-05-27T10:52:39;19.00;99.90
18229;DHT22;9239;50.932;3.142;2023-05-27T10:55:07;19.00;99.90
18229;DHT22;9239;50.932;3.142;2023-05-27T10:57:35;19.20;99.90
18229;DHT22;9239;50.932;3.142;2023-05-27T11:00:04;19.30;99.90
18229;DHT22;9239;50.932;3.142;2023-05-27T11:02:35;19.40;99.90
18229;DHT22;9239;50.932;3.142;2023-05-27T11:05:08;19.20;99.90
18229;DHT22;9239;50.932;3.142;2023-05-27T11:07:36;19.20;99.90
18229;DHT22;9239;50.932;3.142;2023-05-27T11:10:04;19.30;99.90
18229;DHT22;9239;50.932;3.142;2023-05-27T11:12:32;19.40;99.90
18229;DHT22;9239;50.932;3.142;2023-05-27T11:15:00;19.30;99.90
18229;DHT22;9239;50.932;3.142;2023-05-27T11:17:27;19.50;99.90
18229;DHT22;9239;50.932;3.142;2023-05-27T11:19:55;19.60;99.90
18229;DHT22;9239;50.932;3.142;2023-05-27T11:22:24;19.80;99.90
18229;DHT22;9239;50.932;3.142;2023-05-27T11:24:58;19.80;99.90
18229;DHT22;9239;50.932;3.142;2023-05-27T11:27:32;19.80;99.90
18229;DHT22;9239;50.932;3.142;2023-05-27T11:30:07;19.90;99.90
18229;DHT22;9239;50.932;3.142;2023-05-27T11:32:35;19.80;99.90
18229;DHT22;9239;50.932;3.142;2023-05-27T11:35:03;19.90;99.90
18229;DHT22;9239;50.932;3.142;2023-05-27T11:37:31;19.90;99.90
18229;DHT22;9239;50.932;3.142;2023-05-27T11:39:58;20.00;99.90
18229;DHT22;9239;50.932;3.142;2023-05-27T11:42:28;20.10;99.90
18229;DHT22;9239;50.932;3.142;2023-05-27T11:44:56;20.10;99.90
18229;DHT22;9239;50.932;3.142;2023-05-27T11:47:26;20.10;99.90
18229;DHT22;9239;50.932;3.142;2023-05-27T11:49:53;20.30;99.90
18229;DHT22;9239;50.932;3.142;2023-05-27T11:52:23;20.20;99.90
18229;DHT22;9239;50.932;3.142;2023-05-27T11:54:50;20.30;99.90
18229;DHT22;9239;50.932;3.142;2023-05-27T11:57:17;20.30;99.90
18229;DHT22;9239;50.932;3.142;2023-05-27T11:59:44;20.30;99.90
18229;DHT22;9239;50.932;3.142;2023-05-27T12:02:11;20.40;99.90
18229;DHT22;9239;50.932;3.142;2023-05-27T12:04:39;20.50;99.90
18229;DHT22;9239;50.932;3.142;2023-05-27T12:07:06;20.40;99.90
18229;DHT22;9239;50.932;3.142;2023-05-27T12:09:33;20.50;99.90
18229;DHT22;9239;50.932;3.142;2023-05-27T12:12:00;20.50;99.90
18229;DHT22;9239;50.932;3.142;2023-05-27T12:14:27;20.50;99.90
18229;DHT22;9239;50.932;3.142;2023-05-27T12:16:54;20.50;99.90
18229;DHT22;9239;50.932;3.142;2023-05-27T12:19:21;20.50;99.90
18229;DHT22;9239;50.932;3.142;2023-05-27T12:21:49;20.60;99.90
18229;DHT22;9239;50.932;3.142;2023-05-27T12:24:16;20.70;99.90
18229;DHT22;9239;50.932;3.142;2023-05-27T12:26:45;20.80;99.90
18229;DHT22;9239;50.932;3.142;2023-05-27T12:29:12;20.50;99.90
18229;DHT22;9239;50.932;3.142;2023-05-27T12:31:39;20.60;99.90
18229;DHT22;9239;50.932;3.142;2023-05-27T12:34:06;20.60;99.90
18229;DHT22;9239;50.932;3.142;2023-05-27T12:36:32;20.70;99.90
18229;DHT22;9239;50.932;3.142;2023-05-27T12:39:01;20.70;99.90
18229;DHT22;9239;50.932;3.142;2023-05-27T12:41:27;20.70;99.90
18229;DHT22;9239;50.932;3.142;2023-05-27T12:43:54;20.90;99.90
18229;DHT22;9239;50.932;3.142;2023-05-27T12:46:21;21.00;99.90
18229;DHT22;9239;50.932;3.142;2023-05-27T12:48:49;21.10;99.90
18229;DHT22;9239;50.932;3.142;2023-05-27T12:51:16;21.30;99.90
18229;DHT22;9239;50.932;3.142;2023-05-27T12:53:42;21.20;99.90
18229;DHT22;9239;50.932;3.142;2023-05-27T12:56:11;21.20;99.90
18229;DHT22;9239;50.932;3.142;2023-05-27T12:58:38;21.10;99.90
18229;DHT22;9239;50.932;3.142;2023-05-27T13:01:05;21.10;99.90
18229;DHT22;9239;50.932;3.142;2023-05-27T13:03:32;21.20;99.90
18229;DHT22;9239;50.932;3.142;2023-05-27T13:05:59;21.30;99.90
18229;DHT22;9239;50.932;3.142;2023-05-27T13:08:26;21.40;99.90
18229;DHT22;9239;50.932;3.142;2023-05-27T13:10:53;21.40;99.90
18229;DHT22;9239;50.932;3.142;2023-05-27T13:13:21;21.50;99.90
18229;DHT22;9239;50.932;3.142;2023-05-27T13:15:48;21.70;99.90
18229;DHT22;9239;50.932;3.142;2023-05-27T13:18:15;21.60;99.90
18229;DHT22;9239;50.932;3.142;2023-05-27T13:20:42;21.50;99.90
18229;DHT22;9239;50.932;3.142;2023-05-27T13:23:09;21.60;99.90
18229;DHT22;9239;50.932;3.142;2023-05-27T13:25:36;21.50;99.90
18229;DHT22;9239;50.932;3.142;2023-05-27T13:28:03;21.40;99.90
18229;DHT22;9239;50.932;3.142;2023-05-27T13:30:32;21.60;99.90
18229;DHT22;9239;50.932;3.142;2023-05-27T13:32:58;21.60;99.90
18229;DHT22;9239;50.932;3.142;2023-05-27T13:35:26;21.70;99.90
18229;DHT22;9239;50.932;3.142;2023-05-27T13:37:52;21.40;99.90
18229;DHT22;9239;50.932;3.142;2023-05-27T13:40:21;21.40;99.90
18229;DHT22;9239;50.932;3.142;2023-05-27T13:42:48;21.50;99.90
18229;DHT22;9239;50.932;3.142;2023-05-27T13:45:15;21.60;99.90
18229;DHT22;9239;50.932;3.142;2023-05-27T13:47:43;21.70;99.90
18229;DHT22;9239;50.932;3.142;2023-05-27T13:50:10;21.70;99.90
18229;DHT22;9239;50.932;3.142;2023-05-27T13:52:37;21.80;99.90
18229;DHT22;9239;50.932;3.142;2023-05-27T13:55:05;21.80;99.90
18229;DHT22;9239;50.932;3.142;2023-05-27T13:57:47;21.80;99.90
18229;DHT22;9239;50.932;3.142;2023-05-27T14:00:19;21.80;99.90
18229;DHT22;9239;50.932;3.142;2023-05-27T14:02:48;21.70;99.90
18229;DHT22;9239;50.932;3.142;2023-05-27T14:05:15;21.90;99.90
18229;DHT22;9239;50.932;3.142;2023-05-27T14:07:43;22.00;99.90
18229;DHT22;9239;50.932;3.142;2023-05-27T14:10:11;22.20;99.90
18229;DHT22;9239;50.932;3.142;2023-05-27T14:12:39;22.10;99.90
18229;DHT22;9239;50.932;3.142;2023-05-27T14:15:06;21.80;99.90
18229;DHT22;9239;50.932;3.142;2023-05-27T14:17:33;21.90;99.90
18229;DHT22;9239;50.932;3.142;2023-05-27T14:20:02;21.90;99.90
18229;DHT22;9239;50.932;3.142;2023-05-27T14:22:30;21.70;99.90
18229;DHT22;9239;50.932;3.142;2023-05-27T14:24:57;21.80;99.90
18229;DHT22;9239;50.932;3.142;2023-05-27T14:27:24;21.90;99.90
18229;DHT22;9239;50.932;3.142;2023-05-27T14:29:51;22.10;99.90
18229;DHT22;9239;50.932;3.142;2023-05-27T14:32:18;22.10;99.90
18229;DHT22;9239;50.932;3.142;2023-05-27T14:34:44;22.00;99.90
18229;DHT22;9239;50.932;3.142;2023-05-27T14:37:13;22.00;99.90
18229;DHT22;9239;50.932;3.142;2023-05-27T14:39:40;21.90;99.90
18229;DHT22;9239;50.932;3.142;2023-05-27T14:42:07;21.90;99.90
18229;DHT22;9239;50.932;3.142;2023-05-27T14:44:34;21.80;99.90
18229;DHT22;9239;50.932;3.142;2023-05-27T14:47:02;21.90;99.90
18229;DHT22;9239;50.932;3.142;2023-05-27T14:49:30;21.90;99.90
18229;DHT22;9239;50.932;3.142;2023-05-27T14:51:57;21.90;99.90
18229;DHT22;9239;50.932;3.142;2023-05-27T14:54:26;21.90;99.90
18229;DHT22;9239;50.932;3.142;2023-05-27T14:56:56;21.90;99.90
18229;DHT22;9239;50.932;3.142;2023-05-27T14:59:23;22.00;99.90
18229;DHT22;9239;50.932;3.142;2023-05-27T15:01:50;21.80;99.90
18229;DHT22;9239;50.932;3.142;2023-05-27T15:04:17;22.00;99.90
18229;DHT22;9239;50.932;3.142;2023-05-27T15:06:44;22.10;99.90
18229;DHT22;9239;50.932;3.142;2023-05-27T15:09:11;22.10;99.90
18229;DHT22;9239;50.932;3.142;2023-05-27T15:11:39;22.10;99.90
18229;DHT22;9239;50.932;3.142;2023-05-27T15:14:06;22.10;99.90
18229;DHT22;9239;50.932;3.142;2023-05-27T15:16:33;22.30;99.90
18229;DHT22;9239;50.932;3.142;2023-05-27T15:19:00;22.30;99.90
18229;DHT22;9239;50.932;3.142;2023-05-27T15:21:27;22.10;99.90
18229;DHT22;9239;50.932;3.142;2023-05-27T15:23:54;22.10;99.90
18229;DHT22;9239;50.932;3.142;2023-05-27T15:26:21;22.20;99.90
18229;DHT22;9239;50.932;3.142;2023-05-27T15:28:50;22.20;99.90
18229;DHT22;9239;50.932;3.142;2023-05-27T15:31:17;22.20;99.90
18229;DHT22;9239;50.932;3.142;2023-05-27T15:33:45;22.10;99.90
18229;DHT22;9239;50.932;3.142;2023-05-27T15:36:12;21.90;99.90
18229;DHT22;9239;50.932;3.142;2023-05-27T15:38:39;21.80;99.90
18229;DHT22;9239;50.932;3.142;2023-05-27T15:41:06;21.50;99.90
18229;DHT22;9239;50.932;3.142;2023-05-27T15:43:33;21.40;99.90
18229;DHT22;9239;50.932;3.142;2023-05-27T15:46:01;21.40;99.90
18229;DHT22;9239;50.932;3.142;2023-05-27T15:48:28;21.60;99.90